Impacts TAF Board INFO
FOR SITUATIONAL AWARENESS. NOT TO BE USED FOR FLIGHT PLANNING PURPOSES.
IDs:

KSFO - San Francisco Intl, CA, US

Issued at 0543 UTC 24 Jan 2017
Updated at 0903 UTC 24 Jan 2017
Potential Impact None Slight Moderate High
Time0856Z 24/10Z 24/11Z 24/12Z 24/13Z 24/14Z 24/15Z 24/16Z 24/17Z 24/18Z 24/19Z 24/20Z 24/21Z 24/22Z
Type OBS PRVL PRVL PRVL PRVL PRVL PRVL PRVL PRVL PRVL PRVL PRVL PRVL PRVL
VIS 10 >6 >6 >6 >6 >6 >6 >6 >6 >6 >6 >6 >6 >6
CIG -- 30 30 50 50 50 50 -- -- -- -- -- -- --
Cover SCT BKN BKN BKN BKN BKN BKN SKC SKC SKC SKC SKC SKC SKC
FltCat VFR MVFR MVFR VFR VFR VFR VFR VFR VFR VFR VFR VFR VFR VFR
WX -- VCSH VCSH -- -- -- -- -- -- -- -- -- -- --
WDir 130 150 150 110 110 110 110 80 80 80 80 VRB VRB VRB
WSpd 8 6 6 4 4 4 4 4 4 4 4 3 3 3
WGst -- -- -- -- -- -- -- -- -- -- -- -- -- --

Raw TAF
KSFO 240543Z 2406/2512 22010KT P6SM -SHRA FEW018 BKN030 OVC035
  FM240900 15006KT P6SM VCSH FEW020 BKN030 BKN050
  FM241200 11004KT P6SM FEW035 BKN050
  FM241600 08004KT P6SM SKC
  FM242000 VRB03KT P6SM SKC
  FM250200 28006KT P6SM SKC


Raw METAR
KSFO 240856Z 13008KT 10SM FEW031 SCT200 07/05 A2990 RMK AO2 SLP124 T00720050 50002
KSFO 240756Z 15007KT 10SM FEW033 SCT200 07/05 A2990 RMK AO2 SLP125 T00720050 401220072
KSFO 240656Z 13005KT 10SM FEW041 SCT100 08/04 A2991 RMK AO2 SLP126 T00780044

METAR Board
Radar Display
Forecast Discussion

FOR SITUATIONAL AWARENESS. NOT TO BE USED FOR FLIGHT PLANNING PURPOSES.

Page loaded:  09:03 UTC  |   01:03 AM Pacific  |   02:03 AM Mountain  |   03:03 AM Central  |   04:03 AM Eastern

 

ADVISORIES

FORECASTS

FORECASTS

OBSERVATIONS

USER TOOLS

ABOUT US